Time;durP1;ratioP1;P1;durP2;ratioP2;P2;SDS_P1;SDS_P2;PMS_P1;PMS_P2;Temp;Humidity;BMP_temperature;BMP_pressure;BME280_temperature;BME280_humidity;BME280_pressure;Samples;Min_cycle;Max_cycle;Signal;HPM_P1;HPM_P2
2022/12/27 00:02:12;;;;;;;2.40;1.03;;;7.70;99.90;;;;;;5037058;28;20194;-70
2022/12/27 00:04:37;;;;;;;1.73;1.23;;;7.70;99.90;;;;;;5036611;28;20413;-69
2022/12/27 00:07:03;;;;;;;2.27;1.33;;;7.60;99.90;;;;;;5036719;28;20170;-69
2022/12/27 00:09:29;;;;;;;2.43;1.10;;;7.60;99.90;;;;;;5036775;28;20212;-69
2022/12/27 00:11:54;;;;;;;3.37;1.43;;;7.50;99.90;;;;;;5036464;28;20193;-69
2022/12/27 00:14:20;;;;;;;2.10;1.60;;;7.50;99.90;;;;;;5036726;28;20177;-69
2022/12/27 00:16:46;;;;;;;2.17;1.27;;;7.50;99.90;;;;;;5018976;28;20168;-69
2022/12/27 00:19:11;;;;;;;4.03;1.30;;;7.50;99.90;;;;;;5036510;28;20227;-70
2022/12/27 00:21:37;;;;;;;2.13;1.20;;;7.50;99.90;;;;;;5036508;28;20678;-69
2022/12/27 00:24:03;;;;;;;7.03;2.07;;;7.50;99.90;;;;;;5036502;28;20176;-69
2022/12/27 00:26:30;;;;;;;3.70;1.50;;;7.40;99.90;;;;;;5036398;28;20165;-69
2022/12/27 00:28:57;;;;;;;2.07;1.23;;;7.50;99.90;;;;;;5036082;28;20251;-69
2022/12/27 00:31:24;;;;;;;1.60;1.20;;;7.40;99.90;;;;;;5036254;28;20420;-68
2022/12/27 00:33:52;;;;;;;2.13;1.73;;;7.40;99.90;;;;;;5036431;28;20798;-69
2022/12/27 00:36:23;;;;;;;3.67;1.57;;;7.30;99.90;;;;;;5036460;28;20411;-69
2022/12/27 00:38:49;;;;;;;3.20;1.70;;;7.30;99.90;;;;;;5036375;28;20389;-69
2022/12/27 00:41:16;;;;;;;4.40;1.70;;;7.20;99.90;;;;;;5036085;28;20461;-68
2022/12/27 00:43:41;;;;;;;2.17;1.50;;;7.30;99.90;;;;;;5035790;28;20470;-68
2022/12/27 00:46:07;;;;;;;3.67;1.50;;;7.20;99.90;;;;;;5036101;28;20405;-68
2022/12/27 00:48:33;;;;;;;2.13;1.40;;;7.20;99.90;;;;;;5036324;28;20252;-68
2022/12/27 00:51:17;;;;;;;3.63;1.30;;;7.20;99.90;;;;;;5035839;28;20849;-68
2022/12/27 00:53:44;;;;;;;3.27;1.93;;;7.20;99.90;;;;;;5036339;28;20252;-68
2022/12/27 00:56:13;;;;;;;2.30;1.50;;;7.20;99.90;;;;;;5036183;28;20398;-68
2022/12/27 00:58:39;;;;;;;3.43;1.50;;;7.10;99.90;;;;;;5033917;28;20941;-68
2022/12/27 01:01:07;;;;;;;3.23;1.40;;;7.00;99.90;;;;;;5035737;28;20409;-68
2022/12/27 01:03:33;;;;;;;1.43;1.30;;;7.00;99.90;;;;;;5034368;28;20758;-68
2022/12/27 01:06:03;;;;;;;3.00;1.80;;;7.00;99.90;;;;;;5035276;28;20491;-68
2022/12/27 01:08:29;;;;;;;4.17;1.60;;;7.00;99.90;;;;;;5035922;28;20184;-68
2022/12/27 01:10:54;;;;;;;2.00;1.10;;;7.00;99.90;;;;;;5035671;28;20411;-68
2022/12/27 01:13:20;;;;;;;3.30;1.77;;;7.00;99.90;;;;;;5035173;28;20568;-68
2022/12/27 01:15:46;;;;;;;2.60;1.27;;;6.90;99.90;;;;;;5035524;28;20543;-68
2022/12/27 01:18:11;;;;;;;3.60;1.90;;;6.90;99.90;;;;;;5035476;28;20173;-68
2022/12/27 01:20:37;;;;;;;2.53;1.30;;;6.80;99.90;;;;;;5035398;28;20168;-68
2022/12/27 01:23:03;;;;;;;1.53;1.20;;;6.90;99.90;;;;;;5035615;28;20733;-69
2022/12/27 01:25:28;;;;;;;2.47;1.50;;;6.80;99.90;;;;;;5035639;28;20892;-70
2022/12/27 01:27:54;;;;;;;2.53;1.40;;;6.90;99.90;;;;;;5034727;28;20553;-68
2022/12/27 01:30:19;;;;;;;2.73;1.33;;;6.90;99.90;;;;;;5017504;28;20625;-68
2022/12/27 01:32:45;;;;;;;2.73;1.30;;;7.00;99.90;;;;;;5035503;28;20609;-68
2022/12/27 01:35:10;;;;;;;3.90;1.67;;;6.90;99.90;;;;;;5035568;28;20183;-68
2022/12/27 01:37:36;;;;;;;2.40;1.33;;;6.90;99.90;;;;;;5035518;28;20207;-69
2022/12/27 01:40:01;;;;;;;2.10;1.30;;;6.90;99.90;;;;;;5035454;28;20180;-69
2022/12/27 01:45:23;;;;;;;1.60;1.20;;;6.90;99.90;;;;;;5035046;28;20214;-68
2022/12/27 01:48:04;;;;;;;5.30;2.00;;;6.90;99.90;;;;;;5034925;28;20394;-69
2022/12/27 01:50:33;;;;;;;2.27;1.10;;;7.00;99.90;;;;;;5017355;28;20471;-69
2022/12/27 01:53:24;;;;;;;2.40;1.47;;;7.10;99.90;;;;;;5034693;28;20443;-69
2022/12/27 01:56:14;;;;;;;2.00;1.40;;;7.00;99.90;;;;;;5034549;28;20409;-69
2022/12/27 01:58:45;;;;;;;4.57;2.00;;;6.90;99.90;;;;;;5033388;28;20521;-69
2022/12/27 02:01:26;;;;;;;4.50;1.60;;;6.90;99.90;;;;;;5016902;28;20498;-69
2022/12/27 02:04:06;;;;;;;3.80;1.87;;;6.90;99.90;;;;;;5034645;28;20438;-69
2022/12/27 02:06:32;;;;;;;2.27;1.40;;;6.80;99.90;;;;;;5034871;28;20430;-69
2022/12/27 02:09:17;;;;;;;1.97;0.80;;;6.50;99.90;;;;;;5034620;28;20403;-69
2022/12/27 02:11:50;;;;;;;2.47;1.30;;;6.40;99.90;;;;;;5033174;28;20454;-69
2022/12/27 02:14:20;;;;;;;2.20;1.60;;;6.60;99.90;;;;;;5034236;28;20388;-69
2022/12/27 02:16:46;;;;;;;3.60;1.20;;;6.60;99.90;;;;;;5016849;28;20387;-69
2022/12/27 02:19:44;;;;;;;3.47;1.27;;;6.40;99.90;;;;;;5035167;28;20418;-69
2022/12/27 02:26:03;;;;;;;2.63;1.50;;;6.20;99.90;;;;;;5034806;28;20370;-69
2022/12/27 02:28:31;;;;;;;1.60;1.33;;;6.00;99.90;;;;;;5026681;28;20479;-68
2022/12/27 02:31:09;;;;;;;4.27;1.40;;;5.90;99.90;;;;;;5034354;28;20411;-68
2022/12/27 02:33:41;;;;;;;1.50;1.13;;;6.00;99.90;;;;;;5033781;28;20513;-69
2022/12/27 02:36:11;;;;;;;1.30;1.00;;;5.90;99.90;;;;;;5034508;28;20470;-68
2022/12/27 02:38:41;;;;;;;3.80;1.40;;;6.00;99.90;;;;;;5032808;28;20781;-67
2022/12/27 02:55:41;;;;;;;1.47;1.00;;;5.60;99.90;;;;;;5014706;28;20425;-69
2022/12/27 02:58:27;;;;;;;2.00;1.20;;;5.60;99.90;;;;;;5032131;28;20429;-70
2022/12/27 03:04:34;;;;;;;2.10;1.10;;;5.50;99.90;;;;;;5033678;28;20969;-69
2022/12/27 03:07:17;;;;;;;4.97;1.60;;;5.40;99.90;;;;;;5033642;28;20402;-69
2022/12/27 03:16:13;;;;;;;1.80;1.07;;;5.20;99.90;;;;;;5033947;28;20390;-68
2022/12/27 03:19:00;;;;;;;4.30;1.50;;;5.20;99.90;;;;;;5032572;28;20808;-68
2022/12/27 03:27:30;;;;;;;2.20;1.13;;;5.20;99.90;;;;;;5033170;28;20807;-69
2022/12/27 03:33:13;;;;;;;2.50;1.23;;;5.30;99.90;;;;;;5033590;28;20785;-69
2022/12/27 03:38:01;;;;;;;3.53;1.07;;;5.40;99.90;;;;;;5033447;28;20386;-69
2022/12/27 03:38:36;;;;;;;2.40;1.37;;;5.40;99.90;;;;;;5033023;28;20401;-69
2022/12/27 03:43:50;;;;;;;2.47;1.30;;;5.30;99.90;;;;;;5032457;28;20445;-69
2022/12/27 03:46:35;;;;;;;2.60;1.23;;;5.10;99.90;;;;;;5033221;28;20401;-70
2022/12/27 03:49:28;;;;;;;2.23;1.50;;;5.10;99.90;;;;;;5033279;28;20395;-68
2022/12/27 03:52:06;;;;;;;2.13;1.10;;;5.10;99.90;;;;;;5062559;22;20496;-69
2022/12/27 03:54:40;;;;;;;3.27;1.40;;;5.10;99.90;;;;;;5032246;28;20481;-69
2022/12/27 03:57:13;;;;;;;2.40;1.43;;;5.10;99.90;;;;;;5034381;28;21107;-69
2022/12/27 03:59:39;;;;;;;2.97;1.33;;;5.20;99.90;;;;;;5052788;28;20442;-71
2022/12/27 04:02:06;;;;;;;2.83;1.53;;;5.10;99.90;;;;;;5052710;28;20932;-70
2022/12/27 04:04:31;;;;;;;1.23;1.03;;;5.30;99.90;;;;;;5053105;28;20488;-70
2022/12/27 04:06:57;;;;;;;2.30;1.00;;;5.40;99.90;;;;;;5052788;28;20484;-70
2022/12/27 04:36:45;;;;;;;1.90;1.57;;;5.20;99.90;;;;;;5057069;28;20432;-70
2022/12/27 04:39:11;;;;;;;3.00;1.30;;;5.20;99.90;;;;;;5056603;28;20776;-70
2022/12/27 04:55:21;;;;;;;2.30;1.50;;;5.30;99.90;;;;;;5036344;28;20385;-70
2022/12/27 04:57:48;;;;;;;1.80;1.40;;;5.30;99.90;;;;;;5041798;28;20421;-70
2022/12/27 05:03:06;;;;;;;3.60;1.60;;;5.40;99.90;;;;;;5056318;28;20476;-69
2022/12/27 05:05:32;;;;;;;2.40;1.80;;;5.20;99.90;;;;;;5055767;28;20398;-70
2022/12/27 05:16:13;;;;;;;2.30;1.87;;;4.90;99.90;;;;;;5055696;28;20439;-69
2022/12/27 05:18:38;;;;;;;3.90;2.30;;;4.90;99.90;;;;;;5055550;28;20502;-70
2022/12/27 05:21:06;;;;;;;2.77;2.30;;;4.90;99.90;;;;;;5055519;28;20448;-69
2022/12/27 05:26:22;;;;;;;3.33;2.27;;;4.90;99.90;;;;;;5055997;28;20396;-70
2022/12/27 05:28:49;;;;;;;4.03;2.57;;;4.80;99.90;;;;;;5055082;28;20424;-69
2022/12/27 05:31:15;;;;;;;3.50;2.47;;;4.90;99.90;;;;;;5055883;28;20895;-70
2022/12/27 05:33:40;;;;;;;1.97;1.50;;;4.90;99.90;;;;;;5055529;28;20432;-69
2022/12/27 05:36:07;;;;;;;2.33;1.87;;;4.80;99.90;;;;;;5056285;28;20171;-69
2022/12/27 05:38:32;;;;;;;4.30;2.43;;;4.80;99.90;;;;;;5055229;28;20266;-70
2022/12/27 05:41:02;;;;;;;2.47;2.23;;;4.90;99.90;;;;;;5055154;28;20440;-69
2022/12/27 05:43:28;;;;;;;3.33;2.23;;;4.80;99.90;;;;;;5053082;28;20685;-69
2022/12/27 05:45:54;;;;;;;2.80;1.80;;;4.80;99.90;;;;;;5048824;28;20418;-69
2022/12/27 05:48:21;;;;;;;2.00;1.50;;;4.80;99.90;;;;;;5035048;28;20402;-69
2022/12/27 05:50:46;;;;;;;2.10;1.70;;;4.80;99.90;;;;;;5034886;28;20416;-69
2022/12/27 05:53:13;;;;;;;3.77;2.10;;;4.80;99.90;;;;;;5034729;28;20530;-69
2022/12/27 05:55:38;;;;;;;4.67;2.60;;;4.80;99.90;;;;;;5035133;28;20206;-69
2022/12/27 05:58:04;;;;;;;2.80;1.87;;;4.80;99.90;;;;;;5043353;28;20444;-70
2022/12/27 06:00:30;;;;;;;3.20;2.07;;;4.80;99.90;;;;;;5054681;28;20499;-70
2022/12/27 06:02:55;;;;;;;2.33;1.60;;;4.70;99.90;;;;;;5054646;28;20264;-70
2022/12/27 06:05:21;;;;;;;6.13;2.10;;;4.60;99.90;;;;;;5054735;28;20170;-70
2022/12/27 06:07:46;;;;;;;4.17;2.10;;;4.40;99.90;;;;;;5054923;28;20193;-69
2022/12/27 06:10:12;;;;;;;2.53;1.97;;;4.40;99.90;;;;;;5055127;28;20235;-69
2022/12/27 06:12:37;;;;;;;4.33;2.13;;;4.40;99.90;;;;;;5053957;28;20198;-70
2022/12/27 06:15:05;;;;;;;2.87;2.07;;;4.40;99.90;;;;;;5053213;28;20201;-70
2022/12/27 06:17:31;;;;;;;3.27;1.73;;;4.40;99.90;;;;;;5054644;28;20179;-70
2022/12/27 06:19:57;;;;;;;2.57;2.37;;;4.50;99.90;;;;;;5054434;28;20421;-70
2022/12/27 06:22:23;;;;;;;2.90;2.10;;;4.30;99.90;;;;;;5054572;28;20456;-70
2022/12/27 06:24:48;;;;;;;3.00;2.70;;;4.40;99.90;;;;;;5054468;28;20534;-70
2022/12/27 06:27:14;;;;;;;5.20;3.70;;;4.40;99.90;;;;;;5054179;28;20413;-70
2022/12/27 06:29:39;;;;;;;5.30;2.63;;;4.50;99.90;;;;;;5054046;28;20255;-70
2022/12/27 06:32:05;;;;;;;4.13;2.23;;;4.40;99.90;;;;;;5054124;28;20194;-70
2022/12/27 06:34:31;;;;;;;2.60;2.37;;;4.40;99.90;;;;;;5054349;28;20173;-71
2022/12/27 06:36:56;;;;;;;4.00;2.10;;;4.40;99.90;;;;;;5053047;28;20629;-69
2022/12/27 06:39:22;;;;;;;4.10;1.83;;;4.60;99.90;;;;;;5054685;28;20174;-69
2022/12/27 06:41:49;;;;;;;2.47;2.10;;;4.60;99.90;;;;;;5054022;28;20585;-69
2022/12/27 06:44:14;;;;;;;4.07;2.23;;;4.60;99.90;;;;;;5053709;28;20158;-69
2022/12/27 06:46:40;;;;;;;3.40;2.03;;;4.60;99.90;;;;;;5054254;28;20434;-70
2022/12/27 06:49:05;;;;;;;4.57;2.53;;;4.60;99.90;;;;;;5054059;28;20245;-69
2022/12/27 06:51:33;;;;;;;3.03;2.00;;;4.50;99.90;;;;;;5054104;28;20286;-69
2022/12/27 06:53:58;;;;;;;4.23;2.37;;;4.50;99.90;;;;;;5054832;28;20625;-71
2022/12/27 06:56:24;;;;;;;3.83;1.87;;;4.50;99.90;;;;;;5053273;28;20397;-70
2022/12/27 06:58:50;;;;;;;4.83;1.50;;;4.40;99.90;;;;;;5048611;28;20233;-71
2022/12/27 07:01:19;;;;;;;1.90;1.60;;;4.50;99.90;;;;;;5033734;28;20523;-70
2022/12/27 07:03:49;;;;;;;3.67;1.70;;;4.40;99.90;;;;;;5033927;28;21059;-70
2022/12/27 07:06:15;;;;;;;2.07;1.87;;;4.30;99.90;;;;;;5034139;28;20486;-70
2022/12/27 07:08:41;;;;;;;2.27;1.90;;;4.40;99.90;;;;;;5032400;28;20447;-70
2022/12/27 07:11:08;;;;;;;4.33;2.03;;;4.40;99.90;;;;;;5033862;28;20769;-70
2022/12/27 07:13:36;;;;;;;4.17;1.93;;;4.40;99.90;;;;;;5033656;28;20191;-70
2022/12/27 07:16:07;;;;;;;5.80;2.20;;;4.30;99.90;;;;;;5033775;28;20415;-71
2022/12/27 07:18:33;;;;;;;2.80;1.93;;;4.50;99.90;;;;;;5033570;28;20829;-70
2022/12/27 07:21:06;;;;;;;1.90;1.70;;;4.40;99.90;;;;;;5034091;28;20413;-70
2022/12/27 07:23:32;;;;;;;3.17;1.70;;;4.40;99.90;;;;;;5033638;28;20458;-69
2022/12/27 07:26:06;;;;;;;2.07;1.97;;;4.30;99.90;;;;;;5034121;28;20417;-71
2022/12/27 07:28:32;;;;;;;3.37;2.13;;;4.30;99.90;;;;;;5044458;28;20182;-69
2022/12/27 07:30:58;;;;;;;2.93;2.33;;;4.40;99.90;;;;;;5053111;28;20416;-69
2022/12/27 07:33:24;;;;;;;4.10;1.73;;;4.50;99.90;;;;;;5052988;28;20183;-69
2022/12/27 07:35:57;;;;;;;2.23;1.60;;;4.50;99.90;;;;;;5053446;28;20414;-70
2022/12/27 07:38:22;;;;;;;2.60;1.77;;;4.60;99.90;;;;;;5052212;28;20189;-70
2022/12/27 07:40:48;;;;;;;1.77;1.67;;;4.60;99.90;;;;;;5053206;28;20409;-71
2022/12/27 07:43:13;;;;;;;2.97;1.80;;;4.70;99.90;;;;;;5052484;28;20309;-68
2022/12/27 07:45:39;;;;;;;2.93;1.70;;;4.80;99.90;;;;;;5053292;28;20175;-70
2022/12/27 07:48:04;;;;;;;2.10;1.90;;;4.90;99.90;;;;;;5053778;28;20179;-69
2022/12/27 07:50:30;;;;;;;3.57;1.60;;;4.90;99.90;;;;;;5052865;28;20166;-71
2022/12/27 07:52:56;;;;;;;4.00;2.23;;;5.00;99.90;;;;;;5032909;28;20211;-70
2022/12/27 07:55:21;;;;;;;3.90;2.20;;;5.10;99.90;;;;;;5033176;28;20175;-70
2022/12/27 07:57:47;;;;;;;2.10;1.90;;;5.20;99.90;;;;;;5030545;28;20546;-70
2022/12/27 08:00:12;;;;;;;5.20;2.20;;;5.20;99.90;;;;;;5033231;28;20687;-70
2022/12/27 08:02:38;;;;;;;6.83;2.57;;;5.10;99.90;;;;;;5031663;28;20611;-70
2022/12/27 08:05:04;;;;;;;4.17;2.07;;;5.30;99.90;;;;;;5033224;28;20406;-70
2022/12/27 08:07:30;;;;;;;2.40;1.80;;;5.30;99.90;;;;;;5032945;28;20164;-70
2022/12/27 08:09:56;;;;;;;3.00;1.83;;;5.30;99.90;;;;;;5035398;28;20406;-70
2022/12/27 08:12:22;;;;;;;5.30;2.00;;;5.30;99.90;;;;;;5037122;28;20187;-70
2022/12/27 08:14:47;;;;;;;2.50;1.60;;;5.30;99.90;;;;;;5037298;28;20759;-70
2022/12/27 08:17:26;;;;;;;2.57;1.97;;;5.30;99.90;;;;;;5037457;28;20541;-70
2022/12/27 08:19:52;;;;;;;4.53;2.90;;;5.40;99.90;;;;;;5037316;28;20198;-70
2022/12/27 08:22:18;;;;;;;4.90;2.30;;;5.50;99.90;;;;;;5036513;28;20457;-69
2022/12/27 08:24:43;;;;;;;5.77;1.97;;;5.60;99.90;;;;;;5037147;28;20418;-70
2022/12/27 08:27:10;;;;;;;2.90;1.57;;;5.70;99.90;;;;;;5037678;28;20172;-69
2022/12/27 08:29:36;;;;;;;3.77;1.70;;;5.70;99.90;;;;;;5036251;28;20175;-69
2022/12/27 08:32:03;;;;;;;2.67;1.87;;;5.60;99.90;;;;;;5036352;28;20438;-69
2022/12/27 08:34:28;;;;;;;2.60;1.50;;;5.70;99.90;;;;;;5036398;28;20908;-70
2022/12/27 08:36:54;;;;;;;1.80;1.40;;;5.80;99.90;;;;;;5036238;28;20413;-69
2022/12/27 08:39:19;;;;;;;3.13;1.20;;;5.90;99.90;;;;;;5036498;28;20191;-71
2022/12/27 08:41:45;;;;;;;2.30;1.40;;;6.00;99.90;;;;;;5036329;28;20188;-69
2022/12/27 08:44:11;;;;;;;1.70;1.60;;;6.10;99.90;;;;;;5035967;28;20249;-69
2022/12/27 08:46:37;;;;;;;2.73;1.93;;;6.10;99.90;;;;;;5036436;28;20178;-70
2022/12/27 08:49:03;;;;;;;2.47;1.90;;;6.00;99.90;;;;;;5036144;28;20531;-70
2022/12/27 08:51:29;;;;;;;3.13;1.67;;;6.00;99.90;;;;;;5035693;28;20418;-70
2022/12/27 08:53:55;;;;;;;1.90;1.70;;;5.90;99.90;;;;;;5035981;28;20438;-70
2022/12/27 08:56:21;;;;;;;4.37;1.80;;;5.90;99.90;;;;;;5034255;28;20423;-69
2022/12/27 08:58:50;;;;;;;5.40;2.27;;;5.80;99.90;;;;;;5047383;28;20429;-69
2022/12/27 09:01:16;;;;;;;3.47;1.80;;;5.90;99.90;;;;;;5056065;28;20178;-70
2022/12/27 09:03:41;;;;;;;4.10;2.07;;;5.90;99.90;;;;;;5055591;28;20544;-68
2022/12/27 09:06:14;;;;;;;3.50;1.60;;;5.90;99.90;;;;;;5055826;28;20623;-69
2022/12/27 09:08:41;;;;;;;2.53;2.00;;;6.00;99.90;;;;;;5056008;28;20150;-70
2022/12/27 09:11:15;;;;;;;4.40;2.23;;;6.10;99.90;;;;;;5055918;28;20415;-69
2022/12/27 09:13:41;;;;;;;3.63;2.30;;;6.30;99.90;;;;;;5055400;28;20426;-69
2022/12/27 09:16:13;;;;;;;2.90;2.00;;;6.30;99.90;;;;;;5055522;28;20437;-69
2022/12/27 09:18:39;;;;;;;4.27;2.20;;;6.30;99.90;;;;;;5055930;28;20390;-70
2022/12/27 09:21:07;;;;;;;2.30;2.10;;;6.30;99.90;;;;;;5055001;28;20409;-69
2022/12/27 09:23:33;;;;;;;2.87;2.00;;;6.50;99.90;;;;;;5055452;28;20456;-68
2022/12/27 09:26:10;;;;;;;3.57;1.90;;;6.50;99.90;;;;;;5055434;28;20452;-70
2022/12/27 09:28:36;;;;;;;2.20;1.90;;;6.60;99.90;;;;;;5055130;28;20515;-70
2022/12/27 09:31:02;;;;;;;5.10;2.13;;;6.70;99.90;;;;;;5055827;28;20410;-70
2022/12/27 09:33:28;;;;;;;3.53;2.00;;;6.70;99.90;;;;;;5055252;28;20190;-70
2022/12/27 09:36:07;;;;;;;2.60;2.10;;;6.80;99.90;;;;;;5055689;28;20415;-70
2022/12/27 09:38:34;;;;;;;3.43;1.60;;;6.90;99.90;;;;;;5055435;28;20460;-70
2022/12/27 09:41:03;;;;;;;2.20;1.60;;;7.00;99.90;;;;;;5055379;28;20767;-70
2022/12/27 09:43:43;;;;;;;1.90;1.50;;;7.00;99.90;;;;;;5054768;28;20485;-70
2022/12/27 09:46:23;;;;;;;2.70;1.53;;;7.20;99.90;;;;;;5055529;28;20743;-70
2022/12/27 09:48:50;;;;;;;3.30;1.67;;;7.20;99.90;;;;;;5055551;28;20396;-70
2022/12/27 09:51:33;;;;;;;4.40;2.50;;;7.30;99.90;;;;;;5055373;28;20414;-70
2022/12/27 09:54:27;;;;;;;2.93;2.00;;;7.40;99.90;;;;;;5055742;28;20763;-69
2022/12/27 09:56:53;;;;;;;3.83;1.30;;;7.50;99.90;;;;;;5047977;28;20413;-71
2022/12/27 09:59:33;;;;;;;2.40;1.73;;;7.60;99.90;;;;;;5045427;28;20413;-70
2022/12/27 10:01:58;;;;;;;2.80;1.80;;;7.60;99.90;;;;;;5035251;28;20197;-69
2022/12/27 10:04:25;;;;;;;3.23;1.90;;;7.80;99.90;;;;;;5034739;28;20473;-70
2022/12/27 10:06:58;;;;;;;3.80;1.93;;;7.70;99.90;;;;;;5034610;28;20161;-69
2022/12/27 10:09:41;;;;;;;2.83;1.77;;;7.90;99.90;;;;;;5034682;28;20398;-69
2022/12/27 10:12:35;;;;;;;3.47;1.57;;;8.00;99.90;;;;;;5035099;28;20424;-70
2022/12/27 10:15:29;;;;;;;3.27;1.97;;;7.90;99.90;;;;;;5034321;28;20388;-70
2022/12/27 10:18:35;;;;;;;4.13;1.70;;;8.00;99.90;;;;;;5034432;28;20396;-70
2022/12/27 10:21:09;;;;;;;3.17;1.43;;;8.00;99.90;;;;;;5001259;28;20420;-70
2022/12/27 10:23:38;;;;;;;3.00;2.00;;;8.20;99.90;;;;;;5034558;28;20519;-69
2022/12/27 10:26:10;;;;;;;4.30;1.53;;;8.30;99.90;;;;;;5034325;28;20414;-70
2022/12/27 10:28:40;;;;;;;2.43;1.50;;;8.40;99.90;;;;;;5044381;28;20438;-71
2022/12/27 10:31:16;;;;;;;1.90;1.57;;;8.40;99.90;;;;;;5053672;28;20416;-69
2022/12/27 10:33:43;;;;;;;2.23;1.30;;;8.30;99.90;;;;;;5052606;28;20438;-68
2022/12/27 10:36:15;;;;;;;3.60;2.00;;;8.30;99.90;;;;;;5053792;28;20487;-70
2022/12/27 10:38:40;;;;;;;2.17;1.73;;;8.40;99.90;;;;;;5053997;28;20394;-70
2022/12/27 10:41:25;;;;;;;2.70;1.70;;;8.50;99.90;;;;;;5054102;28;20413;-70
2022/12/27 10:43:53;;;;;;;3.03;1.70;;;8.60;99.90;;;;;;5053352;28;20192;-70
2022/12/27 10:46:21;;;;;;;3.13;1.63;;;8.50;99.90;;;;;;5052782;28;20480;-69
2022/12/27 10:48:57;;;;;;;2.87;1.43;;;8.60;99.90;;;;;;5053825;28;20826;-69
2022/12/27 10:51:33;;;;;;;1.90;1.20;;;8.60;99.90;;;;;;5053708;28;20401;-70
2022/12/27 10:54:03;;;;;;;2.13;1.40;;;8.70;99.90;;;;;;5054105;28;20396;-70
2022/12/27 10:56:29;;;;;;;2.37;1.40;;;8.70;99.90;;;;;;5053870;28;20985;-71
2022/12/27 10:59:17;;;;;;;2.33;1.40;;;9.00;99.90;;;;;;5046604;28;20735;-70
2022/12/27 11:01:44;;;;;;;5.60;1.53;;;9.40;99.90;;;;;;5034105;28;20942;-69
2022/12/27 11:04:12;;;;;;;2.50;1.27;;;10.30;99.90;;;;;;5033393;28;20537;-68
2022/12/27 11:06:38;;;;;;;3.30;1.60;;;12.00;99.90;;;;;;5033425;28;20920;-69
2022/12/27 11:09:43;;;;;;;3.80;1.50;;;13.10;99.90;;;;;;5033675;28;20410;-69
2022/12/27 11:12:16;;;;;;;6.57;1.80;;;14.60;99.70;;;;;;4972842;28;20238;-69
2022/12/27 11:14:56;;;;;;;1.67;1.20;;;15.20;97.50;;;;;;5025488;28;20417;-70
2022/12/27 11:17:41;;;;;;;3.43;1.50;;;14.90;96.20;;;;;;5033577;28;20412;-70
2022/12/27 11:20:11;;;;;;;5.00;1.60;;;14.80;96.30;;;;;;5032862;28;20903;-68
2022/12/27 11:22:47;;;;;;;2.70;1.50;;;15.30;95.20;;;;;;5033180;28;20507;-70
2022/12/27 11:25:14;;;;;;;2.33;1.50;;;13.50;95.70;;;;;;5048621;28;20416;-69
2022/12/27 11:27:52;;;;;;;3.90;1.50;;;13.00;97.40;;;;;;5033175;28;20414;-68
2022/12/27 11:30:38;;;;;;;3.10;1.40;;;13.20;97.20;;;;;;5047188;28;20822;-69
2022/12/27 11:33:21;;;;;;;2.80;1.57;;;13.80;97.50;;;;;;5053051;28;20436;-69
2022/12/27 11:35:51;;;;;;;4.97;2.27;;;13.40;97.80;;;;;;5053200;28;20483;-69
2022/12/27 11:38:29;;;;;;;5.20;2.70;;;13.30;98.10;;;;;;5052906;28;20458;-69
2022/12/27 11:41:20;;;;;;;4.60;2.80;;;13.20;98.70;;;;;;5053593;28;20387;-71
2022/12/27 11:43:58;;;;;;;4.63;2.30;;;12.60;99.00;;;;;;5052088;28;20598;-70
2022/12/27 11:46:30;;;;;;;7.17;4.90;;;12.30;99.00;;;;;;5052793;28;20742;-70
2022/12/27 11:48:57;;;;;;;27.27;19.27;;;12.80;99.40;;;;;;5053201;28;20392;-70
2022/12/27 11:51:58;;;;;;;5.30;2.47;;;13.50;98.60;;;;;;5048276;28;20549;-69
2022/12/27 11:54:56;;;;;;;6.13;4.20;;;15.20;96.80;;;;;;5013270;28;20494;-69
2022/12/27 11:57:51;;;;;;;5.20;2.80;;;16.10;95.70;;;;;;5013335;28;20392;-70
2022/12/27 12:00:21;;;;;;;7.60;4.70;;;15.20;95.00;;;;;;5040426;28;20418;-69
2022/12/27 12:03:15;;;;;;;7.20;2.50;;;15.00;95.20;;;;;;5053501;28;20510;-69
2022/12/27 12:05:58;;;;;;;4.83;2.80;;;13.80;95.70;;;;;;5052565;28;20408;-71
2022/12/27 12:09:00;;;;;;;5.23;3.30;;;13.30;96.60;;;;;;5053070;28;20385;-69
2022/12/27 12:11:51;;;;;;;5.27;3.60;;;13.30;97.80;;;;;;5053302;28;20467;-69
2022/12/27 12:14:45;;;;;;;5.90;3.20;;;13.30;98.30;;;;;;5052549;28;20499;-69
2022/12/27 12:17:22;;;;;;;5.00;3.40;;;13.40;97.00;;;;;;5053276;28;20409;-69
2022/12/27 12:20:22;;;;;;;3.07;1.40;;;14.30;97.30;;;;;;5052826;28;20393;-69
2022/12/27 12:23:11;;;;;;;2.23;1.23;;;15.20;95.10;;;;;;5052592;28;20461;-69
2022/12/27 12:26:11;;;;;;;96.77;61.37;;;15.20;94.80;;;;;;5052796;28;20387;-69
2022/12/27 12:28:45;;;;;;;25.40;18.03;;;14.40;95.50;;;;;;5052260;28;20408;-69
2022/12/27 12:31:41;;;;;;;34.43;22.20;;;14.00;96.10;;;;;;5052068;28;20455;-69
2022/12/27 12:34:18;;;;;;;29.23;20.73;;;13.70;97.00;;;;;;5052626;28;20393;-69
2022/12/27 12:37:18;;;;;;;7.30;5.17;;;12.80;97.10;;;;;;5052382;28;20419;-69
2022/12/27 12:39:46;;;;;;;33.27;18.87;;;12.10;98.30;;;;;;5051016;28;20420;-69
2022/12/27 12:42:45;;;;;;;9.97;4.90;;;12.00;99.80;;;;;;5052058;28;20943;-68
2022/12/27 12:45:29;;;;;;;6.50;3.00;;;12.30;99.40;;;;;;5051938;28;20394;-68
2022/12/27 12:48:19;;;;;;;4.57;2.57;;;12.20;99.40;;;;;;5052606;28;20412;-69
2022/12/27 12:50:44;;;;;;;2.70;1.30;;;12.00;99.90;;;;;;5052500;28;20400;-68
2022/12/27 12:53:39;;;;;;;2.20;1.27;;;12.00;99.90;;;;;;5050800;28;20457;-68
2022/12/27 12:56:31;;;;;;;2.13;1.63;;;12.00;99.90;;;;;;5055087;28;20160;-68
2022/12/27 12:59:08;;;;;;;4.87;1.47;;;11.60;99.90;;;;;;5054791;28;20417;-70
2022/12/27 13:01:44;;;;;;;1.57;1.30;;;11.60;99.90;;;;;;5042894;28;20397;-70
2022/12/27 13:04:21;;;;;;;5.17;1.87;;;11.40;99.90;;;;;;5035974;28;20925;-70
2022/12/27 13:07:05;;;;;;;5.80;1.90;;;11.60;99.90;;;;;;5036219;28;20404;-70
2022/12/27 13:09:39;;;;;;;3.90;2.70;;;11.60;99.90;;;;;;5036515;28;20862;-70
2022/12/27 13:12:31;;;;;;;3.03;1.87;;;11.60;99.90;;;;;;5035583;28;20415;-70
2022/12/27 13:15:19;;;;;;;3.57;1.63;;;11.30;99.90;;;;;;5033843;28;20909;-70
2022/12/27 13:18:22;;;;;;;4.30;1.80;;;11.30;99.90;;;;;;5035888;28;20539;-70
2022/12/27 13:21:51;;;;;;;2.60;1.67;;;11.10;99.90;;;;;;5035695;28;20425;-68
2022/12/27 13:25:13;;;;;;;6.60;1.90;;;11.00;99.90;;;;;;4974484;28;20924;-70
2022/12/27 13:28:17;;;;;;;4.93;1.60;;;10.80;99.90;;;;;;4917712;29;20419;-69
2022/12/27 13:31:00;;;;;;;1.73;1.60;;;10.60;99.90;;;;;;4951214;28;20800;-71
2022/12/27 13:33:42;;;;;;;3.30;1.87;;;10.20;99.90;;;;;;5009058;28;20840;-69
2022/12/27 13:36:27;;;;;;;3.30;1.47;;;10.40;99.90;;;;;;5015362;28;20390;-69
2022/12/27 13:39:14;;;;;;;3.73;1.87;;;10.50;99.90;;;;;;5015562;28;20391;-70
2022/12/27 13:41:49;;;;;;;3.70;1.90;;;10.80;99.90;;;;;;5015513;28;20762;-70
2022/12/27 13:44:42;;;;;;;3.37;1.70;;;10.90;99.90;;;;;;5014550;28;20430;-70
2022/12/27 13:47:11;;;;;;;2.67;1.80;;;10.80;99.90;;;;;;5015326;28;20391;-71
2022/12/27 13:50:01;;;;;;;6.47;2.10;;;10.70;99.90;;;;;;5014962;28;20403;-70
2022/12/27 13:52:47;;;;;;;2.60;1.40;;;10.60;99.90;;;;;;5014884;28;20879;-71
2022/12/27 13:55:48;;;;;;;2.10;1.57;;;10.50;99.90;;;;;;5014840;28;20408;-70
2022/12/27 13:58:35;;;;;;;1.93;1.60;;;10.60;99.90;;;;;;5015198;28;20723;-70
2022/12/27 14:01:25;;;;;;;3.07;1.53;;;10.40;99.90;;;;;;5051278;28;20506;-70
2022/12/27 14:04:33;;;;;;;3.00;1.70;;;10.10;99.90;;;;;;5033775;28;20476;-70
2022/12/27 14:07:35;;;;;;;4.17;2.00;;;10.20;99.90;;;;;;5034710;28;20379;-70
2022/12/27 14:10:10;;;;;;;4.90;2.13;;;10.20;99.90;;;;;;5034865;28;20400;-69
2022/12/27 14:12:55;;;;;;;1.80;1.30;;;10.30;99.90;;;;;;5034602;28;20438;-69
2022/12/27 14:15:41;;;;;;;9.33;2.87;;;10.30;99.90;;;;;;5033945;28;20416;-70
2022/12/27 14:18:37;;;;;;;3.13;1.67;;;10.30;99.90;;;;;;5035012;28;20386;-69
2022/12/27 14:21:28;;;;;;;2.70;1.53;;;10.20;99.90;;;;;;5034673;28;20383;-69
2022/12/27 14:24:31;;;;;;;3.23;1.50;;;9.90;99.90;;;;;;5034404;28;20843;-69
2022/12/27 14:27:26;;;;;;;2.60;1.57;;;9.60;99.90;;;;;;5034246;28;20410;-69
2022/12/27 14:30:28;;;;;;;2.80;1.20;;;9.60;99.90;;;;;;5031670;28;20866;-69
2022/12/27 14:33:18;;;;;;;5.60;1.70;;;9.60;99.90;;;;;;5054288;28;20839;-71
2022/12/27 14:35:49;;;;;;;3.53;1.93;;;9.60;99.90;;;;;;5054062;28;20388;-69
2022/12/27 14:38:28;;;;;;;3.10;1.87;;;9.50;99.90;;;;;;5054549;28;20401;-69
2022/12/27 14:41:37;;;;;;;5.40;1.97;;;9.40;99.90;;;;;;5054197;28;20472;-69
2022/12/27 14:44:09;;;;;;;4.07;2.17;;;9.30;99.90;;;;;;5054348;28;20434;-70
2022/12/27 14:47:04;;;;;;;3.80;2.30;;;9.20;99.90;;;;;;5053321;28;20561;-69
2022/12/27 14:49:35;;;;;;;3.40;2.37;;;9.20;99.90;;;;;;5053788;28;20378;-70
2022/12/27 14:52:15;;;;;;;5.90;2.87;;;9.10;99.90;;;;;;5053538;28;20432;-69
2022/12/27 14:55:12;;;;;;;5.07;2.27;;;8.90;99.90;;;;;;5053939;28;20386;-70
2022/12/27 14:58:19;;;;;;;5.37;2.50;;;8.90;99.90;;;;;;5053796;28;20811;-70
2022/12/27 15:01:07;;;;;;;6.13;2.37;;;8.80;99.90;;;;;;5051725;28;20474;-69
2022/12/27 15:03:54;;;;;;;4.10;2.40;;;8.70;99.90;;;;;;5053951;28;20445;-70
2022/12/27 15:06:38;;;;;;;2.83;1.63;;;8.70;99.90;;;;;;5052847;28;20396;-71
2022/12/27 15:09:23;;;;;;;2.90;2.47;;;8.50;99.90;;;;;;5033873;28;20789;-69
2022/12/27 15:12:12;;;;;;;4.80;2.27;;;8.50;99.90;;;;;;5034410;28;20416;-71